createdAt,value
2019-05-22T00:00:52.502Z,100471.27
2019-05-22T00:05:06.415Z,100468.22
2019-05-22T00:09:16.258Z,100465.84
2019-05-22T00:13:23.043Z,100464.47
2019-05-22T00:17:32.390Z,100467.44
2019-05-22T00:21:35.964Z,100465.55
2019-05-22T00:25:38.775Z,100473.05
2019-05-22T00:29:41.352Z,100466.48
2019-05-22T00:33:43.922Z,100466.78
2019-05-22T00:37:46.141Z,100465.88
2019-05-22T00:41:51.846Z,100457.12
2019-05-22T00:45:54.356Z,100465.95
2019-05-22T00:49:59.884Z,100462.17
2019-05-22T00:54:38.685Z,100471.56
2019-05-22T00:58:48.055Z,100457.33
2019-05-22T01:02:51.758Z,100460.52
2019-05-22T01:06:55.664Z,100454.01
2019-05-22T01:10:58.587Z,100460.58
2019-05-22T01:15:06.558Z,100452.38
2019-05-22T01:19:08.349Z,100454.14
2019-05-22T01:23:12.560Z,100449.99
2019-05-22T01:27:15.981Z,100445.09
2019-05-22T01:31:33.705Z,100448.00
2019-05-22T01:35:37.079Z,100449.95
2019-05-22T01:39:55.950Z,100454.25
2019-05-22T01:44:02.618Z,100447.28
2019-05-22T01:48:08.931Z,100447.06
2019-05-22T01:52:12.916Z,100437.53
2019-05-22T01:56:17.150Z,100434.84
2019-05-22T02:00:19.088Z,100433.55
2019-05-22T02:04:22.094Z,100433.80
2019-05-22T02:08:25.541Z,100435.64
2019-05-22T02:12:41.341Z,100434.61
2019-05-22T02:16:56.248Z,100432.14
2019-05-22T02:20:50.235Z,100424.23
2019-05-22T02:24:53.390Z,100426.56
2019-05-22T02:28:55.728Z,100427.05
2019-05-22T02:32:57.842Z,100429.20
2019-05-22T02:37:00.197Z,100426.20
2019-05-22T02:41:04.405Z,100421.36
2019-05-22T02:45:07.470Z,100421.86
2019-05-22T02:49:10.666Z,100424.79
2019-05-22T02:53:15.053Z,100416.41
2019-05-22T02:57:16.933Z,100415.77
2019-05-22T03:01:20.206Z,100421.70
2019-05-22T03:05:22.822Z,100422.72
2019-05-22T03:09:26.905Z,100417.34
2019-05-22T03:13:59.821Z,100421.11
2019-05-22T03:18:06.046Z,100422.98
2019-05-22T03:22:31.481Z,100422.16
2019-05-22T03:26:48.044Z,100427.37
2019-05-22T03:30:51.011Z,100428.80
2019-05-22T03:34:54.451Z,100429.69
2019-05-22T03:38:58.339Z,100433.92
2019-05-22T03:43:05.386Z,100437.48
2019-05-22T03:47:07.342Z,100433.44
2019-05-22T03:51:13.554Z,100436.13
2019-05-22T03:55:16.373Z,100433.60
2019-05-22T03:59:18.153Z,100431.53
2019-05-22T04:03:21.284Z,100432.49
2019-05-22T04:07:24.665Z,100432.75
2019-05-22T04:11:31.371Z,100438.02
2019-05-22T04:15:33.970Z,100429.43
2019-05-22T04:19:48.624Z,100435.52
2019-05-22T04:23:40.119Z,100440.21
2019-05-22T04:27:43.430Z,100432.42
2019-05-22T04:31:54.051Z,100432.75
2019-05-22T04:35:57.388Z,100424.88
2019-05-22T04:40:52.279Z,100425.34
2019-05-22T04:45:15.469Z,100417.45
2019-05-22T04:49:18.262Z,100429.49
2019-05-22T04:53:20.202Z,100417.98
2019-05-22T04:57:24.255Z,100422.18
2019-05-22T05:01:26.579Z,100415.67
2019-05-22T05:05:30.854Z,100415.01
2019-05-22T05:09:33.172Z,100416.06
2019-05-22T05:13:35.138Z,100416.50
2019-05-22T05:17:37.904Z,100410.50
2019-05-22T05:21:40.291Z,100408.50
2019-05-22T05:25:44.263Z,100402.30
2019-05-22T05:29:46.158Z,100407.61
2019-05-22T05:34:23.242Z,100411.73
2019-05-22T05:38:36.150Z,100408.88
2019-05-22T05:42:38.436Z,100410.36
2019-05-22T05:46:40.553Z,100411.39
2019-05-22T05:51:02.806Z,100412.57
2019-05-22T05:55:05.442Z,100410.31
2019-05-22T05:59:09.988Z,100415.05
2019-05-22T06:03:38.448Z,100408.41
2019-05-22T06:07:40.707Z,100407.38
2019-05-22T06:11:45.659Z,100403.27
2019-05-22T06:16:31.649Z,100398.75
2019-05-22T06:20:34.938Z,100398.84
2019-05-22T06:24:59.984Z,100410.37
2019-05-22T06:29:02.891Z,100397.34
2019-05-22T06:33:31.735Z,100397.58
2019-05-22T06:37:39.879Z,100392.72
2019-05-22T06:41:43.942Z,100389.55
2019-05-22T06:45:45.750Z,100385.59
2019-05-22T06:49:51.723Z,100387.52
2019-05-22T06:53:53.587Z,100384.59
2019-05-22T06:57:55.463Z,100380.64
2019-05-22T07:02:01.468Z,100381.34
2019-05-22T07:06:03.353Z,100382.17
2019-05-22T07:10:07.303Z,100383.02
2019-05-22T07:14:10.695Z,100375.54
2019-05-22T07:18:15.383Z,100377.48
2019-05-22T07:22:17.536Z,100380.50
2019-05-22T07:26:20.013Z,100377.75
2019-05-22T07:30:21.869Z,100370.98
2019-05-22T07:34:23.863Z,100382.53
2019-05-22T07:38:26.963Z,100383.34
2019-05-22T07:42:28.901Z,100389.72
2019-05-22T07:46:31.079Z,100383.53
2019-05-22T07:50:36.815Z,100383.73
2019-05-22T07:54:41.205Z,100387.53
2019-05-22T07:58:45.102Z,100385.17
2019-05-22T08:02:49.122Z,100392.03
2019-05-22T08:06:51.733Z,100386.56
2019-05-22T08:10:56.151Z,100374.05
2019-05-22T08:14:58.208Z,100377.34
2019-05-22T08:19:00.548Z,100378.56
2019-05-22T08:23:03.802Z,100378.56
2019-05-22T08:27:08.017Z,100383.63
2019-05-22T08:31:11.097Z,100373.68
2019-05-22T08:35:13.749Z,100373.68
2019-05-22T08:39:16.181Z,100375.91
2019-05-22T08:43:18.939Z,100384.69
2019-05-22T08:47:21.115Z,100379.41
2019-05-22T08:51:23.148Z,100374.72
2019-05-22T08:55:25.393Z,100377.09
2019-05-22T08:59:27.446Z,100369.31
2019-05-22T09:03:29.738Z,100369.61
2019-05-22T09:07:33.025Z,100362.63
2019-05-22T09:11:34.846Z,100357.66
2019-05-22T09:15:38.626Z,100354.07
2019-05-22T09:19:40.608Z,100356.78
2019-05-22T09:23:44.583Z,100345.69
2019-05-22T09:27:47.653Z,100351.88
2019-05-22T09:31:49.790Z,100342.95
2019-05-22T09:35:51.950Z,100343.98
2019-05-22T09:39:53.972Z,100344.81
2019-05-22T09:43:56.084Z,100339.80
2019-05-22T09:47:58.513Z,100337.83
2019-05-22T09:52:00.521Z,100333.67
2019-05-22T09:56:02.577Z,100336.05
2019-05-22T10:00:08.646Z,100335.92
2019-05-22T10:04:11.008Z,100331.67
2019-05-22T10:08:13.250Z,100319.88
2019-05-22T10:12:14.992Z,100325.59
2019-05-22T10:16:17.432Z,100328.45
2019-05-22T10:20:20.549Z,100315.08
2019-05-22T10:24:22.348Z,100311.74
2019-05-22T10:28:24.417Z,100311.64
2019-05-22T10:32:31.867Z,100314.27
2019-05-22T10:36:31.770Z,100305.88
2019-05-22T10:40:34.282Z,100308.51
2019-05-22T10:44:36.169Z,100300.63
2019-05-22T10:48:40.413Z,100295.63
2019-05-22T10:52:42.142Z,100292.80
2019-05-22T10:56:43.947Z,100287.24
2019-05-22T11:00:50.646Z,100284.47
2019-05-22T11:04:52.717Z,100279.53
2019-05-22T11:08:54.844Z,100280.25
2019-05-22T11:13:00.796Z,100271.29
2019-05-22T11:17:03.114Z,100269.82
2019-05-22T11:21:05.243Z,100253.63
2019-05-22T11:25:08.904Z,100253.78
2019-05-22T11:29:11.407Z,100246.28
2019-05-22T11:33:18.008Z,100239.88
2019-05-22T11:37:21.049Z,100244.61
2019-05-22T11:41:22.953Z,100236.09
2019-05-22T11:45:25.182Z,100238.49
2019-05-22T11:49:27.226Z,100236.33
2019-05-22T11:53:29.786Z,100230.51
2019-05-22T11:57:40.334Z,100228.22
2019-05-22T12:01:42.692Z,100227.52
2019-05-22T12:05:45.348Z,100223.41
2019-05-22T12:09:47.617Z,100224.61
2019-05-22T12:13:50.261Z,100219.96
2019-05-22T12:17:54.398Z,100212.56
2019-05-22T12:21:56.185Z,100205.86
2019-05-22T12:25:58.069Z,100193.98
2019-05-22T12:30:00.100Z,100193.09
2019-05-22T12:34:02.648Z,100180.11
2019-05-22T12:38:05.164Z,100179.47
2019-05-22T12:42:08.174Z,100171.17
2019-05-22T12:46:11.823Z,100171.71
2019-05-22T12:50:17.216Z,100175.95
2019-05-22T12:54:19.226Z,100181.17
2019-05-22T12:58:22.091Z,100179.85
2019-05-22T13:02:24.826Z,100172.69
2019-05-22T13:06:27.511Z,100163.55
2019-05-22T13:10:30.349Z,100164.38
2019-05-22T13:14:34.512Z,100166.16
2019-05-22T13:18:37.450Z,100154.88
2019-05-22T13:22:41.273Z,100146.19
2019-05-22T13:26:44.720Z,100148.16
2019-05-22T13:30:52.984Z,100138.98
2019-05-22T13:34:55.968Z,100152.20
2019-05-22T13:38:58.137Z,100196.47
2019-05-22T13:43:03.340Z,100226.28
2019-05-22T13:47:06.609Z,100226.28
2019-05-22T13:51:12.468Z,100235.36
2019-05-22T13:55:14.616Z,100207.53
2019-05-22T13:59:19.619Z,100213.81
2019-05-22T14:03:23.743Z,100226.81
2019-05-22T14:07:29.044Z,100234.14
2019-05-22T14:11:30.960Z,100224.00
2019-05-22T14:15:49.940Z,100238.13
2019-05-22T14:19:36.745Z,100212.47
2019-05-22T14:23:38.918Z,100206.64
2019-05-22T14:27:42.050Z,100199.45
2019-05-22T14:31:43.983Z,100182.77
2019-05-22T14:35:49.505Z,100184.29
2019-05-22T14:39:51.505Z,100175.38
2019-05-22T14:43:53.498Z,100177.75
2019-05-22T14:47:55.378Z,100182.91
2019-05-22T14:51:57.365Z,100173.23
2019-05-22T14:56:01.513Z,100173.75
2019-05-22T15:00:03.505Z,100168.34
2019-05-22T15:04:05.781Z,100167.61
2019-05-22T15:08:08.575Z,100160.11
2019-05-22T15:12:10.533Z,100153.58
2019-05-22T15:16:13.121Z,100148.33
2019-05-22T15:20:21.541Z,100139.84
2019-05-22T15:24:23.923Z,100137.67
2019-05-22T15:28:27.042Z,100138.13
2019-05-22T15:32:29.360Z,100130.14
2019-05-22T15:36:31.714Z,100119.65
2019-05-22T15:40:33.830Z,100110.55
2019-05-22T15:44:35.916Z,100098.69
2019-05-22T15:48:40.461Z,100094.93
2019-05-22T15:52:44.245Z,100099.09
2019-05-22T15:56:47.689Z,100103.84
2019-05-22T16:00:50.666Z,100091.52
2019-05-22T16:04:59.680Z,100095.27
2019-05-22T16:09:06.012Z,100091.84
2019-05-22T16:13:09.224Z,100083.69
2019-05-22T16:17:11.573Z,100068.52
2019-05-22T16:21:15.174Z,100086.05
2019-05-22T16:25:17.710Z,100078.77
2019-05-22T16:29:22.233Z,100079.03
2019-05-22T16:33:26.197Z,100086.76
2019-05-22T16:37:29.312Z,100084.87
2019-05-22T16:41:32.484Z,100080.37
2019-05-22T16:45:36.280Z,100076.28
2019-05-22T16:49:38.840Z,100078.29
2019-05-22T16:53:41.109Z,100077.49
2019-05-22T16:57:43.996Z,100079.77
2019-05-22T17:01:58.583Z,100070.80
2019-05-22T17:05:50.920Z,100073.55
2019-05-22T17:09:55.046Z,100073.48
2019-05-22T17:14:00.520Z,100069.26
2019-05-22T17:18:02.508Z,100066.75
2019-05-22T17:22:08.068Z,100069.59
2019-05-22T17:26:10.285Z,100065.34
2019-05-22T17:30:20.493Z,100067.55
2019-05-22T17:34:32.815Z,100069.53
2019-05-22T17:38:35.722Z,100068.94
2019-05-22T17:42:39.256Z,100067.78
2019-05-22T17:46:44.777Z,100061.64
2019-05-22T17:50:48.280Z,100056.41
2019-05-22T17:54:53.117Z,100054.23
2019-05-22T17:58:54.915Z,100050.05
2019-05-22T18:02:57.402Z,100041.73
2019-05-22T18:07:00.289Z,100037.14
2019-05-22T18:11:06.641Z,100038.31
2019-05-22T18:15:11.555Z,100044.48
2019-05-22T18:19:14.183Z,100043.34
2019-05-22T18:23:16.449Z,100040.56
2019-05-22T18:27:18.449Z,100048.66
2019-05-22T18:31:20.432Z,100048.05
2019-05-22T18:35:22.520Z,100042.80
2019-05-22T18:39:24.511Z,100041.80
2019-05-22T18:43:26.309Z,100048.27
2019-05-22T18:47:28.750Z,100049.30
2019-05-22T18:51:31.239Z,100047.74
2019-05-22T18:55:33.149Z,100047.75
2019-05-22T18:59:35.215Z,100038.99
2019-05-22T19:03:37.033Z,100038.33
2019-05-22T19:07:39.086Z,100030.15
2019-05-22T19:11:41.325Z,100034.83
2019-05-22T19:15:43.386Z,100041.36
2019-05-22T19:19:45.872Z,100042.73
2019-05-22T19:23:48.280Z,100045.14
2019-05-22T19:27:50.218Z,100040.06
2019-05-22T19:31:51.976Z,100045.36
2019-05-22T19:35:54.985Z,100035.98
2019-05-22T19:39:56.813Z,100046.40
2019-05-22T19:43:58.692Z,100051.14
2019-05-22T19:48:00.448Z,100049.94
2019-05-22T19:52:02.572Z,100055.23
2019-05-22T19:56:06.856Z,100055.03
2019-05-22T20:00:09.297Z,100050.72
2019-05-22T20:04:12.652Z,100056.36
2019-05-22T20:08:14.456Z,100058.14
2019-05-22T20:12:18.286Z,100058.22
2019-05-22T20:16:20.779Z,100067.81
2019-05-22T20:20:24.523Z,100058.50
2019-05-22T20:24:27.248Z,100055.14
2019-05-22T20:28:30.196Z,100065.30
2019-05-22T20:32:32.607Z,100055.38
2019-05-22T20:36:37.168Z,100054.41
2019-05-22T20:40:40.134Z,100044.61
2019-05-22T20:44:42.538Z,100056.11
2019-05-22T20:48:45.902Z,100059.45
2019-05-22T20:52:49.850Z,100056.32
2019-05-22T20:56:53.185Z,100062.39
2019-05-22T21:00:55.450Z,100061.55
2019-05-22T21:04:57.674Z,100056.48
2019-05-22T21:09:00.936Z,100057.52
2019-05-22T21:13:05.831Z,100059.52
2019-05-22T21:17:08.046Z,100053.30
2019-05-22T21:21:10.233Z,100051.45
2019-05-22T21:25:13.663Z,100043.27
2019-05-22T21:29:16.179Z,100046.11
2019-05-22T21:33:18.530Z,100052.67
2019-05-22T21:37:21.602Z,100063.77
2019-05-22T21:41:23.838Z,100061.27
2019-05-22T21:45:25.754Z,100069.98
2019-05-22T21:49:30.044Z,100079.75
2019-05-22T21:53:32.080Z,100081.43
2019-05-22T21:57:35.281Z,100092.19
2019-05-22T22:01:43.984Z,100096.03
2019-05-22T22:05:46.942Z,100101.23
2019-05-22T22:09:49.411Z,100106.27
2019-05-22T22:13:51.481Z,100111.13
2019-05-22T22:17:53.893Z,100107.61
2019-05-22T22:21:57.034Z,100121.89
2019-05-22T22:26:00.402Z,100118.52
2019-05-22T22:30:03.999Z,100121.89
2019-05-22T22:34:20.465Z,100123.88
2019-05-22T22:38:26.323Z,100120.36
2019-05-22T22:42:31.697Z,100123.00
2019-05-22T22:46:49.362Z,100127.53
2019-05-22T22:50:51.553Z,100132.77
2019-05-22T22:54:53.598Z,100135.44
2019-05-22T22:58:55.783Z,100135.44
2019-05-22T23:03:00.066Z,100140.34
2019-05-22T23:07:07.964Z,100147.76
2019-05-22T23:11:10.657Z,100145.06
2019-05-22T23:15:18.311Z,100141.53
2019-05-22T23:19:38.752Z,100144.27
2019-05-22T23:23:39.006Z,100144.96
2019-05-22T23:27:43.017Z,100142.58
2019-05-22T23:31:45.315Z,100147.30
2019-05-22T23:35:47.573Z,100152.53
2019-05-22T23:39:52.666Z,100149.16
2019-05-22T23:43:55.671Z,100157.72
2019-05-22T23:48:14.909Z,100157.56
2019-05-22T23:52:17.605Z,100161.38
2019-05-22T23:56:21.089Z,100168.44
